Audubon, Minnesota
Current Conditions -  °F | °C
As of 10:55 AM on Tuesday 27 Jan 2015 (Local Time) from KDTL Reporting Station
Overcast Overcast  
Wind Chill: 19°   Ceiling: 200
Heat Index: 28°   Visibility: 10mi
Dew Point: 28°   Wind: 10mph
Humidity: 100%   Direction: 150°SSE
Pressure: 30.08"   Gusts: NA
Location:  46.86°N, 95.98°W
Report Text: KDTL 271655Z AUTO 15009KT 10SM OVC002 M02/M02 A3008 RMK AO2
Loading
Personal Weather Stations






























Interactive Weather Map New forecast layout! Learn more

10-Day Weather Forecast

Advertisements
Track Severe Weather on mobile